sensor_id;sensor_type;location;lat;lon;timestamp;P1;durP1;ratioP1;P2;durP2;ratioP2
54959;SDS011;40860;51.710;8.736;2023-03-01T00:03:35;7.95;;;6.70;;
54959;SDS011;40860;51.710;8.736;2023-03-01T00:07:38;10.20;;;6.68;;
54959;SDS011;40860;51.710;8.736;2023-03-01T00:11:41;8.40;;;6.55;;
54959;SDS011;40860;51.710;8.736;2023-03-01T00:15:46;9.27;;;7.03;;
54959;SDS011;40860;51.710;8.736;2023-03-01T00:19:49;9.00;;;7.13;;
54959;SDS011;40860;51.710;8.736;2023-03-01T00:23:52;11.77;;;7.70;;
54959;SDS011;40860;51.710;8.736;2023-03-01T00:27:56;10.93;;;7.35;;
54959;SDS011;40860;51.710;8.736;2023-03-01T00:32:00;8.73;;;7.07;;
54959;SDS011;40860;51.710;8.736;2023-03-01T00:36:03;12.15;;;8.00;;
54959;SDS011;40860;51.710;8.736;2023-03-01T00:40:07;9.68;;;7.85;;
54959;SDS011;40860;51.710;8.736;2023-03-01T00:44:11;10.60;;;7.97;;
54959;SDS011;40860;51.710;8.736;2023-03-01T00:48:15;11.35;;;7.68;;
54959;SDS011;40860;51.710;8.736;2023-03-01T00:52:18;11.70;;;8.10;;
54959;SDS011;40860;51.710;8.736;2023-03-01T00:56:21;12.07;;;7.85;;
54959;SDS011;40860;51.710;8.736;2023-03-01T01:00:23;10.43;;;7.90;;
54959;SDS011;40860;51.710;8.736;2023-03-01T01:04:30;13.07;;;7.70;;
54959;SDS011;40860;51.710;8.736;2023-03-01T01:08:33;11.80;;;8.00;;
54959;SDS011;40860;51.710;8.736;2023-03-01T01:12:36;12.25;;;8.38;;
54959;SDS011;40860;51.710;8.736;2023-03-01T01:16:39;12.65;;;7.75;;
54959;SDS011;40860;51.710;8.736;2023-03-01T01:20:43;11.68;;;8.65;;
54959;SDS011;40860;51.710;8.736;2023-03-01T01:24:46;13.00;;;7.88;;
54959;SDS011;40860;51.710;8.736;2023-03-01T01:28:49;12.80;;;8.00;;
54959;SDS011;40860;51.710;8.736;2023-03-01T01:32:53;11.82;;;7.60;;
54959;SDS011;40860;51.710;8.736;2023-03-01T01:36:57;10.93;;;7.65;;
54959;SDS011;40860;51.710;8.736;2023-03-01T01:41:03;15.18;;;8.65;;
54959;SDS011;40860;51.710;8.736;2023-03-01T01:45:28;13.00;;;8.13;;
54959;SDS011;40860;51.710;8.736;2023-03-01T01:49:35;14.98;;;8.52;;
54959;SDS011;40860;51.710;8.736;2023-03-01T01:53:41;13.10;;;8.20;;
54959;SDS011;40860;51.710;8.736;2023-03-01T01:57:47;14.00;;;7.95;;
54959;SDS011;40860;51.710;8.736;2023-03-01T02:01:53;13.95;;;8.07;;
54959;SDS011;40860;51.710;8.736;2023-03-01T02:05:58;11.10;;;7.50;;
54959;SDS011;40860;51.710;8.736;2023-03-01T02:10:07;10.70;;;7.28;;
54959;SDS011;40860;51.710;8.736;2023-03-01T02:14:12;11.13;;;7.30;;
54959;SDS011;40860;51.710;8.736;2023-03-01T02:18:16;11.93;;;7.68;;
54959;SDS011;40860;51.710;8.736;2023-03-01T02:22:22;12.75;;;7.10;;
54959;SDS011;40860;51.710;8.736;2023-03-01T02:26:29;9.00;;;6.20;;
54959;SDS011;40860;51.710;8.736;2023-03-01T02:30:39;9.48;;;6.38;;
54959;SDS011;40860;51.710;8.736;2023-03-01T02:35:03;7.93;;;6.05;;
54959;SDS011;40860;51.710;8.736;2023-03-01T02:39:08;9.20;;;6.38;;
54959;SDS011;40860;51.710;8.736;2023-03-01T02:43:18;9.85;;;6.65;;
54959;SDS011;40860;51.710;8.736;2023-03-01T02:47:26;8.20;;;6.15;;
54959;SDS011;40860;51.710;8.736;2023-03-01T02:51:37;11.13;;;6.70;;
54959;SDS011;40860;51.710;8.736;2023-03-01T02:55:47;11.80;;;7.05;;
54959;SDS011;40860;51.710;8.736;2023-03-01T02:59:50;8.10;;;6.18;;
54959;SDS011;40860;51.710;8.736;2023-03-01T03:03:56;9.82;;;6.50;;
54959;SDS011;40860;51.710;8.736;2023-03-01T03:08:00;8.52;;;5.75;;
54959;SDS011;40860;51.710;8.736;2023-03-01T03:12:09;8.48;;;6.15;;
54959;SDS011;40860;51.710;8.736;2023-03-01T03:16:12;9.43;;;6.78;;
54959;SDS011;40860;51.710;8.736;2023-03-01T03:20:17;8.98;;;6.80;;
54959;SDS011;40860;51.710;8.736;2023-03-01T03:24:21;10.63;;;7.18;;
54959;SDS011;40860;51.710;8.736;2023-03-01T03:28:24;9.30;;;6.60;;
54959;SDS011;40860;51.710;8.736;2023-03-01T03:32:27;8.27;;;6.47;;
54959;SDS011;40860;51.710;8.736;2023-03-01T03:36:31;11.93;;;7.70;;
54959;SDS011;40860;51.710;8.736;2023-03-01T03:40:34;10.68;;;6.95;;
54959;SDS011;40860;51.710;8.736;2023-03-01T03:44:38;13.38;;;6.97;;
54959;SDS011;40860;51.710;8.736;2023-03-01T03:48:41;10.55;;;7.07;;
54959;SDS011;40860;51.710;8.736;2023-03-01T03:52:47;10.13;;;7.30;;
54959;SDS011;40860;51.710;8.736;2023-03-01T03:56:53;9.93;;;7.07;;
54959;SDS011;40860;51.710;8.736;2023-03-01T04:00:56;9.73;;;6.55;;
54959;SDS011;40860;51.710;8.736;2023-03-01T04:04:59;10.25;;;7.25;;
54959;SDS011;40860;51.710;8.736;2023-03-01T04:09:03;10.95;;;7.32;;
54959;SDS011;40860;51.710;8.736;2023-03-01T04:13:07;10.00;;;6.72;;
54959;SDS011;40860;51.710;8.736;2023-03-01T04:17:12;9.45;;;6.97;;
54959;SDS011;40860;51.710;8.736;2023-03-01T04:21:15;9.82;;;6.68;;
54959;SDS011;40860;51.710;8.736;2023-03-01T04:25:19;9.90;;;6.80;;
54959;SDS011;40860;51.710;8.736;2023-03-01T04:29:25;8.40;;;6.28;;
54959;SDS011;40860;51.710;8.736;2023-03-01T04:33:28;8.85;;;6.10;;
54959;SDS011;40860;51.710;8.736;2023-03-01T04:37:31;9.20;;;6.40;;
54959;SDS011;40860;51.710;8.736;2023-03-01T04:41:35;9.82;;;5.93;;
54959;SDS011;40860;51.710;8.736;2023-03-01T04:45:39;9.90;;;7.00;;
54959;SDS011;40860;51.710;8.736;2023-03-01T04:49:41;9.20;;;6.72;;
54959;SDS011;40860;51.710;8.736;2023-03-01T04:53:44;9.23;;;6.63;;
54959;SDS011;40860;51.710;8.736;2023-03-01T04:57:48;8.85;;;6.22;;
54959;SDS011;40860;51.710;8.736;2023-03-01T05:01:51;8.98;;;6.50;;
54959;SDS011;40860;51.710;8.736;2023-03-01T05:05:58;8.45;;;6.47;;
54959;SDS011;40860;51.710;8.736;2023-03-01T05:10:01;13.25;;;7.40;;
54959;SDS011;40860;51.710;8.736;2023-03-01T05:14:06;9.88;;;6.80;;
54959;SDS011;40860;51.710;8.736;2023-03-01T05:18:10;9.45;;;6.82;;
54959;SDS011;40860;51.710;8.736;2023-03-01T05:22:12;10.15;;;6.75;;
54959;SDS011;40860;51.710;8.736;2023-03-01T05:26:15;11.50;;;6.68;;
54959;SDS011;40860;51.710;8.736;2023-03-01T05:30:30;10.90;;;7.68;;
54959;SDS011;40860;51.710;8.736;2023-03-01T05:34:34;10.00;;;7.43;;
54959;SDS011;40860;51.710;8.736;2023-03-01T05:38:37;10.95;;;7.38;;
54959;SDS011;40860;51.710;8.736;2023-03-01T05:42:43;12.27;;;7.50;;
54959;SDS011;40860;51.710;8.736;2023-03-01T05:46:48;11.10;;;7.18;;
54959;SDS011;40860;51.710;8.736;2023-03-01T05:50:51;10.25;;;7.00;;
54959;SDS011;40860;51.710;8.736;2023-03-01T05:54:54;21.85;;;11.32;;
54959;SDS011;40860;51.710;8.736;2023-03-01T05:58:57;18.98;;;10.45;;
54959;SDS011;40860;51.710;8.736;2023-03-01T06:03:01;21.50;;;10.80;;
54959;SDS011;40860;51.710;8.736;2023-03-01T06:07:04;14.40;;;8.50;;
54959;SDS011;40860;51.710;8.736;2023-03-01T06:11:07;13.02;;;7.70;;
54959;SDS011;40860;51.710;8.736;2023-03-01T06:15:10;11.23;;;7.00;;
54959;SDS011;40860;51.710;8.736;2023-03-01T06:19:16;10.77;;;7.18;;
54959;SDS011;40860;51.710;8.736;2023-03-01T06:23:19;12.00;;;7.97;;
54959;SDS011;40860;51.710;8.736;2023-03-01T06:27:22;10.98;;;7.05;;
54959;SDS011;40860;51.710;8.736;2023-03-01T06:31:25;12.05;;;7.43;;
54959;SDS011;40860;51.710;8.736;2023-03-01T06:35:29;12.20;;;7.75;;
54959;SDS011;40860;51.710;8.736;2023-03-01T06:39:32;11.30;;;7.75;;
54959;SDS011;40860;51.710;8.736;2023-03-01T06:43:35;14.50;;;8.63;;
54959;SDS011;40860;51.710;8.736;2023-03-01T06:47:38;13.25;;;8.70;;
54959;SDS011;40860;51.710;8.736;2023-03-01T06:51:42;16.25;;;9.55;;
54959;SDS011;40860;51.710;8.736;2023-03-01T06:55:45;17.77;;;8.77;;
54959;SDS011;40860;51.710;8.736;2023-03-01T06:59:48;13.75;;;7.70;;
54959;SDS011;40860;51.710;8.736;2023-03-01T07:03:51;10.95;;;7.80;;
54959;SDS011;40860;51.710;8.736;2023-03-01T07:07:55;11.80;;;7.97;;
54959;SDS011;40860;51.710;8.736;2023-03-01T07:11:58;16.15;;;8.43;;
54959;SDS011;40860;51.710;8.736;2023-03-01T07:16:02;12.57;;;7.95;;
54959;SDS011;40860;51.710;8.736;2023-03-01T07:20:12;11.38;;;7.30;;
54959;SDS011;40860;51.710;8.736;2023-03-01T07:24:17;13.98;;;7.82;;
54959;SDS011;40860;51.710;8.736;2023-03-01T07:28:22;13.68;;;7.72;;
54959;SDS011;40860;51.710;8.736;2023-03-01T07:32:27;11.68;;;8.38;;
54959;SDS011;40860;51.710;8.736;2023-03-01T07:36:32;13.55;;;7.72;;
54959;SDS011;40860;51.710;8.736;2023-03-01T07:40:36;14.63;;;8.00;;
54959;SDS011;40860;51.710;8.736;2023-03-01T07:44:39;12.63;;;8.25;;
54959;SDS011;40860;51.710;8.736;2023-03-01T07:48:42;11.40;;;7.40;;
54959;SDS011;40860;51.710;8.736;2023-03-01T07:52:45;15.23;;;7.70;;
54959;SDS011;40860;51.710;8.736;2023-03-01T07:56:50;10.75;;;7.15;;
54959;SDS011;40860;51.710;8.736;2023-03-01T08:00:53;20.80;;;10.05;;
54959;SDS011;40860;51.710;8.736;2023-03-01T08:04:56;11.20;;;8.50;;
54959;SDS011;40860;51.710;8.736;2023-03-01T08:08:59;10.65;;;7.40;;
54959;SDS011;40860;51.710;8.736;2023-03-01T08:13:06;10.20;;;7.00;;
54959;SDS011;40860;51.710;8.736;2023-03-01T08:17:09;10.65;;;7.30;;
54959;SDS011;40860;51.710;8.736;2023-03-01T08:21:13;8.95;;;6.97;;
54959;SDS011;40860;51.710;8.736;2023-03-01T08:25:17;11.32;;;8.45;;
54959;SDS011;40860;51.710;8.736;2023-03-01T08:29:21;10.80;;;7.72;;
54959;SDS011;40860;51.710;8.736;2023-03-01T08:33:25;10.63;;;7.35;;
54959;SDS011;40860;51.710;8.736;2023-03-01T08:37:29;10.27;;;7.40;;
54959;SDS011;40860;51.710;8.736;2023-03-01T08:41:34;12.38;;;7.45;;
54959;SDS011;40860;51.710;8.736;2023-03-01T08:45:38;9.70;;;7.50;;
54959;SDS011;40860;51.710;8.736;2023-03-01T08:49:41;9.63;;;7.35;;
54959;SDS011;40860;51.710;8.736;2023-03-01T08:53:44;14.82;;;8.65;;
54959;SDS011;40860;51.710;8.736;2023-03-01T08:57:47;10.18;;;7.40;;
54959;SDS011;40860;51.710;8.736;2023-03-01T09:01:51;8.98;;;7.10;;
54959;SDS011;40860;51.710;8.736;2023-03-01T09:05:59;9.25;;;7.07;;
54959;SDS011;40860;51.710;8.736;2023-03-01T09:10:03;8.65;;;6.63;;
54959;SDS011;40860;51.710;8.736;2023-03-01T09:14:06;7.65;;;5.75;;
54959;SDS011;40860;51.710;8.736;2023-03-01T09:18:10;7.82;;;5.85;;
54959;SDS011;40860;51.710;8.736;2023-03-01T09:22:13;8.75;;;5.80;;
54959;SDS011;40860;51.710;8.736;2023-03-01T09:26:16;8.65;;;5.65;;
54959;SDS011;40860;51.710;8.736;2023-03-01T09:30:22;6.43;;;5.47;;
54959;SDS011;40860;51.710;8.736;2023-03-01T09:34:26;7.18;;;5.50;;
54959;SDS011;40860;51.710;8.736;2023-03-01T09:38:29;7.95;;;5.38;;
54959;SDS011;40860;51.710;8.736;2023-03-01T09:42:34;9.38;;;5.22;;
54959;SDS011;40860;51.710;8.736;2023-03-01T09:46:40;7.60;;;5.03;;
54959;SDS011;40860;51.710;8.736;2023-03-01T09:50:46;6.13;;;5.20;;
54959;SDS011;40860;51.710;8.736;2023-03-01T09:54:51;6.47;;;5.28;;
54959;SDS011;40860;51.710;8.736;2023-03-01T09:59:03;7.15;;;5.03;;
54959;SDS011;40860;51.710;8.736;2023-03-01T10:03:21;7.40;;;5.30;;
54959;SDS011;40860;51.710;8.736;2023-03-01T10:07:32;6.50;;;5.18;;
54959;SDS011;40860;51.710;8.736;2023-03-01T10:11:45;6.97;;;4.97;;
54959;SDS011;40860;51.710;8.736;2023-03-01T10:15:53;6.88;;;5.32;;
54959;SDS011;40860;51.710;8.736;2023-03-01T10:20:05;6.78;;;4.70;;
54959;SDS011;40860;51.710;8.736;2023-03-01T10:24:19;7.22;;;5.53;;
54959;SDS011;40860;51.710;8.736;2023-03-01T10:28:25;7.32;;;5.50;;
54959;SDS011;40860;51.710;8.736;2023-03-01T10:32:32;7.30;;;5.10;;
54959;SDS011;40860;51.710;8.736;2023-03-01T10:36:35;7.18;;;5.18;;
54959;SDS011;40860;51.710;8.736;2023-03-01T10:40:52;6.50;;;5.38;;
54959;SDS011;40860;51.710;8.736;2023-03-01T10:44:58;8.52;;;5.47;;
54959;SDS011;40860;51.710;8.736;2023-03-01T10:49:19;7.38;;;5.47;;
54959;SDS011;40860;51.710;8.736;2023-03-01T10:53:24;5.80;;;5.03;;
54959;SDS011;40860;51.710;8.736;2023-03-01T10:57:33;7.78;;;5.68;;
54959;SDS011;40860;51.710;8.736;2023-03-01T11:01:42;7.07;;;5.82;;
54959;SDS011;40860;51.710;8.736;2023-03-01T11:05:50;6.72;;;4.75;;
54959;SDS011;40860;51.710;8.736;2023-03-01T11:09:55;7.70;;;5.90;;
54959;SDS011;40860;51.710;8.736;2023-03-01T11:14:00;9.43;;;6.25;;
54959;SDS011;40860;51.710;8.736;2023-03-01T11:18:26;6.90;;;4.93;;
54959;SDS011;40860;51.710;8.736;2023-03-01T11:22:47;5.75;;;4.95;;
54959;SDS011;40860;51.710;8.736;2023-03-01T11:26:54;10.23;;;6.25;;
54959;SDS011;40860;51.710;8.736;2023-03-01T11:31:00;9.40;;;5.18;;
54959;SDS011;40860;51.710;8.736;2023-03-01T11:35:10;7.93;;;5.25;;
54959;SDS011;40860;51.710;8.736;2023-03-01T11:39:23;8.40;;;5.75;;
54959;SDS011;40860;51.710;8.736;2023-03-01T11:43:33;9.07;;;6.60;;
54959;SDS011;40860;51.710;8.736;2023-03-01T11:47:51;10.77;;;6.65;;
54959;SDS011;40860;51.710;8.736;2023-03-01T11:52:01;8.50;;;6.03;;
54959;SDS011;40860;51.710;8.736;2023-03-01T11:56:13;8.68;;;5.93;;
54959;SDS011;40860;51.710;8.736;2023-03-01T12:00:35;7.25;;;5.50;;
54959;SDS011;40860;51.710;8.736;2023-03-01T12:05:05;10.50;;;6.25;;
54959;SDS011;40860;51.710;8.736;2023-03-01T12:09:36;7.53;;;5.45;;
54959;SDS011;40860;51.710;8.736;2023-03-01T12:13:55;6.82;;;5.38;;
54959;SDS011;40860;51.710;8.736;2023-03-01T12:18:18;6.85;;;5.40;;
54959;SDS011;40860;51.710;8.736;2023-03-01T12:22:40;8.00;;;5.40;;
54959;SDS011;40860;51.710;8.736;2023-03-01T12:26:56;7.25;;;5.30;;
54959;SDS011;40860;51.710;8.736;2023-03-01T12:31:16;8.52;;;5.85;;
54959;SDS011;40860;51.710;8.736;2023-03-01T12:35:38;6.90;;;5.32;;
54959;SDS011;40860;51.710;8.736;2023-03-01T12:39:58;9.57;;;6.07;;
54959;SDS011;40860;51.710;8.736;2023-03-01T12:44:23;7.20;;;5.38;;
54959;SDS011;40860;51.710;8.736;2023-03-01T12:48:36;7.03;;;5.45;;
54959;SDS011;40860;51.710;8.736;2023-03-01T12:52:46;8.73;;;5.28;;
54959;SDS011;40860;51.710;8.736;2023-03-01T12:56:53;8.27;;;5.00;;
54959;SDS011;40860;51.710;8.736;2023-03-01T13:01:04;7.03;;;5.18;;
54959;SDS011;40860;51.710;8.736;2023-03-01T13:05:19;6.38;;;4.90;;
54959;SDS011;40860;51.710;8.736;2023-03-01T13:09:30;8.30;;;5.20;;
54959;SDS011;40860;51.710;8.736;2023-03-01T13:13:40;6.53;;;5.20;;
54959;SDS011;40860;51.710;8.736;2023-03-01T13:17:43;5.70;;;4.72;;
54959;SDS011;40860;51.710;8.736;2023-03-01T13:21:48;6.25;;;4.80;;
54959;SDS011;40860;51.710;8.736;2023-03-01T13:26:02;6.53;;;4.97;;
54959;SDS011;40860;51.710;8.736;2023-03-01T13:34:55;7.40;;;5.38;;
54959;SDS011;40860;51.710;8.736;2023-03-01T13:39:03;7.50;;;5.35;;
54959;SDS011;40860;51.710;8.736;2023-03-01T13:47:32;8.48;;;5.88;;
54959;SDS011;40860;51.710;8.736;2023-03-01T13:51:37;7.30;;;5.50;;
54959;SDS011;40860;51.710;8.736;2023-03-01T13:55:41;8.77;;;5.88;;
54959;SDS011;40860;51.710;8.736;2023-03-01T13:59:46;7.18;;;5.65;;
54959;SDS011;40860;51.710;8.736;2023-03-01T14:03:51;11.65;;;6.43;;
54959;SDS011;40860;51.710;8.736;2023-03-01T14:07:54;9.20;;;6.15;;
54959;SDS011;40860;51.710;8.736;2023-03-01T14:12:13;8.57;;;6.05;;
54959;SDS011;40860;51.710;8.736;2023-03-01T14:16:26;13.25;;;5.97;;
54959;SDS011;40860;51.710;8.736;2023-03-01T14:20:40;7.88;;;5.57;;
54959;SDS011;40860;51.710;8.736;2023-03-01T14:24:47;6.72;;;5.25;;
54959;SDS011;40860;51.710;8.736;2023-03-01T14:28:53;11.18;;;6.53;;
54959;SDS011;40860;51.710;8.736;2023-03-01T14:32:57;10.43;;;6.90;;
54959;SDS011;40860;51.710;8.736;2023-03-01T14:37:10;10.32;;;6.50;;
54959;SDS011;40860;51.710;8.736;2023-03-01T14:41:20;8.20;;;6.15;;
54959;SDS011;40860;51.710;8.736;2023-03-01T14:45:25;9.32;;;6.05;;
54959;SDS011;40860;51.710;8.736;2023-03-01T14:49:30;9.52;;;6.07;;
54959;SDS011;40860;51.710;8.736;2023-03-01T14:53:35;11.30;;;6.25;;
54959;SDS011;40860;51.710;8.736;2023-03-01T14:57:51;11.43;;;5.95;;
54959;SDS011;40860;51.710;8.736;2023-03-01T15:01:54;6.43;;;5.32;;
54959;SDS011;40860;51.710;8.736;2023-03-01T15:05:59;8.68;;;6.03;;
54959;SDS011;40860;51.710;8.736;2023-03-01T15:10:05;9.65;;;6.13;;
54959;SDS011;40860;51.710;8.736;2023-03-01T15:14:26;9.43;;;6.07;;
54959;SDS011;40860;51.710;8.736;2023-03-01T15:18:46;7.82;;;5.72;;
54959;SDS011;40860;51.710;8.736;2023-03-01T15:22:51;6.57;;;5.50;;
54959;SDS011;40860;51.710;8.736;2023-03-01T15:26:56;7.10;;;5.95;;
54959;SDS011;40860;51.710;8.736;2023-03-01T15:31:18;9.57;;;6.00;;
54959;SDS011;40860;51.710;8.736;2023-03-01T15:35:33;8.45;;;5.78;;
54959;SDS011;40860;51.710;8.736;2023-03-01T15:39:43;6.93;;;5.45;;
54959;SDS011;40860;51.710;8.736;2023-03-01T15:43:56;7.13;;;5.75;;
54959;SDS011;40860;51.710;8.736;2023-03-01T15:48:00;7.53;;;5.72;;
54959;SDS011;40860;51.710;8.736;2023-03-01T15:52:08;7.30;;;5.75;;
54959;SDS011;40860;51.710;8.736;2023-03-01T15:56:14;7.95;;;6.22;;
54959;SDS011;40860;51.710;8.736;2023-03-01T16:00:19;10.43;;;6.32;;
54959;SDS011;40860;51.710;8.736;2023-03-01T16:04:22;8.82;;;6.07;;
54959;SDS011;40860;51.710;8.736;2023-03-01T16:08:25;8.60;;;5.68;;
54959;SDS011;40860;51.710;8.736;2023-03-01T16:12:28;9.05;;;6.30;;
54959;SDS011;40860;51.710;8.736;2023-03-01T16:16:32;8.80;;;5.70;;
54959;SDS011;40860;51.710;8.736;2023-03-01T16:20:37;9.55;;;6.72;;
54959;SDS011;40860;51.710;8.736;2023-03-01T16:24:40;8.73;;;6.32;;
54959;SDS011;40860;51.710;8.736;2023-03-01T16:28:42;10.57;;;7.78;;
54959;SDS011;40860;51.710;8.736;2023-03-01T16:32:47;8.23;;;5.82;;
54959;SDS011;40860;51.710;8.736;2023-03-01T16:36:50;8.10;;;5.68;;
54959;SDS011;40860;51.710;8.736;2023-03-01T16:40:53;9.25;;;6.07;;
54959;SDS011;40860;51.710;8.736;2023-03-01T16:44:56;6.32;;;5.18;;
54959;SDS011;40860;51.710;8.736;2023-03-01T16:49:00;8.63;;;5.60;;
54959;SDS011;40860;51.710;8.736;2023-03-01T16:53:04;9.80;;;7.15;;
54959;SDS011;40860;51.710;8.736;2023-03-01T16:57:07;9.57;;;7.22;;
54959;SDS011;40860;51.710;8.736;2023-03-01T17:01:10;8.20;;;5.05;;
54959;SDS011;40860;51.710;8.736;2023-03-01T17:05:19;14.77;;;7.97;;
54959;SDS011;40860;51.710;8.736;2023-03-01T17:09:24;8.07;;;5.93;;
54959;SDS011;40860;51.710;8.736;2023-03-01T17:13:27;10.77;;;6.57;;
54959;SDS011;40860;51.710;8.736;2023-03-01T17:17:30;9.35;;;5.72;;
54959;SDS011;40860;51.710;8.736;2023-03-01T17:21:34;8.18;;;5.72;;
54959;SDS011;40860;51.710;8.736;2023-03-01T17:25:40;10.05;;;5.65;;
54959;SDS011;40860;51.710;8.736;2023-03-01T17:29:45;10.85;;;6.25;;
54959;SDS011;40860;51.710;8.736;2023-03-01T17:33:48;11.65;;;6.55;;
54959;SDS011;40860;51.710;8.736;2023-03-01T17:37:53;9.23;;;6.07;;
54959;SDS011;40860;51.710;8.736;2023-03-01T17:41:57;8.85;;;5.50;;
54959;SDS011;40860;51.710;8.736;2023-03-01T17:46:00;7.63;;;4.65;;
54959;SDS011;40860;51.710;8.736;2023-03-01T17:50:04;6.63;;;4.85;;
54959;SDS011;40860;51.710;8.736;2023-03-01T17:54:09;6.70;;;5.15;;
54959;SDS011;40860;51.710;8.736;2023-03-01T17:58:13;10.13;;;5.55;;
54959;SDS011;40860;51.710;8.736;2023-03-01T18:02:17;5.97;;;5.00;;
54959;SDS011;40860;51.710;8.736;2023-03-01T18:06:21;7.30;;;5.25;;
54959;SDS011;40860;51.710;8.736;2023-03-01T18:10:26;10.38;;;6.00;;
54959;SDS011;40860;51.710;8.736;2023-03-01T18:14:30;7.82;;;5.60;;
54959;SDS011;40860;51.710;8.736;2023-03-01T18:18:34;7.82;;;5.38;;
54959;SDS011;40860;51.710;8.736;2023-03-01T18:22:39;10.30;;;5.97;;
54959;SDS011;40860;51.710;8.736;2023-03-01T18:26:43;10.68;;;5.88;;
54959;SDS011;40860;51.710;8.736;2023-03-01T18:30:46;7.57;;;5.80;;
54959;SDS011;40860;51.710;8.736;2023-03-01T18:34:51;10.20;;;5.88;;
54959;SDS011;40860;51.710;8.736;2023-03-01T18:39:00;7.03;;;5.38;;
54959;SDS011;40860;51.710;8.736;2023-03-01T18:43:04;7.78;;;5.60;;
54959;SDS011;40860;51.710;8.736;2023-03-01T18:47:08;7.00;;;5.68;;
54959;SDS011;40860;51.710;8.736;2023-03-01T18:51:12;8.75;;;5.47;;
54959;SDS011;40860;51.710;8.736;2023-03-01T18:55:16;6.75;;;5.03;;
54959;SDS011;40860;51.710;8.736;2023-03-01T18:59:21;7.43;;;5.25;;
54959;SDS011;40860;51.710;8.736;2023-03-01T19:03:24;8.35;;;5.30;;
54959;SDS011;40860;51.710;8.736;2023-03-01T19:07:32;7.07;;;4.80;;
54959;SDS011;40860;51.710;8.736;2023-03-01T19:11:35;8.57;;;5.50;;
54959;SDS011;40860;51.710;8.736;2023-03-01T19:15:39;7.05;;;4.65;;
54959;SDS011;40860;51.710;8.736;2023-03-01T19:19:43;8.27;;;4.65;;
54959;SDS011;40860;51.710;8.736;2023-03-01T19:23:50;7.93;;;4.75;;
54959;SDS011;40860;51.710;8.736;2023-03-01T19:27:57;7.15;;;5.50;;
54959;SDS011;40860;51.710;8.736;2023-03-01T19:32:01;22.00;;;9.82;;
54959;SDS011;40860;51.710;8.736;2023-03-01T19:36:04;19.15;;;9.68;;
54959;SDS011;40860;51.710;8.736;2023-03-01T19:40:09;10.90;;;6.32;;
54959;SDS011;40860;51.710;8.736;2023-03-01T19:44:21;12.45;;;8.70;;
54959;SDS011;40860;51.710;8.736;2023-03-01T19:48:28;13.25;;;8.02;;
54959;SDS011;40860;51.710;8.736;2023-03-01T19:52:31;11.68;;;6.68;;
54959;SDS011;40860;51.710;8.736;2023-03-01T19:56:34;14.27;;;7.00;;
54959;SDS011;40860;51.710;8.736;2023-03-01T20:00:38;14.88;;;9.27;;
54959;SDS011;40860;51.710;8.736;2023-03-01T20:04:46;13.23;;;7.93;;
54959;SDS011;40860;51.710;8.736;2023-03-01T20:08:55;12.73;;;7.78;;
54959;SDS011;40860;51.710;8.736;2023-03-01T20:13:03;12.52;;;7.05;;
54959;SDS011;40860;51.710;8.736;2023-03-01T20:17:08;10.63;;;7.60;;
54959;SDS011;40860;51.710;8.736;2023-03-01T20:21:13;15.32;;;9.05;;
54959;SDS011;40860;51.710;8.736;2023-03-01T20:25:25;12.75;;;8.18;;
54959;SDS011;40860;51.710;8.736;2023-03-01T20:29:28;12.93;;;8.20;;
54959;SDS011;40860;51.710;8.736;2023-03-01T20:33:31;12.45;;;8.73;;
54959;SDS011;40860;51.710;8.736;2023-03-01T20:37:36;12.27;;;8.05;;
54959;SDS011;40860;51.710;8.736;2023-03-01T20:41:41;12.57;;;7.88;;
54959;SDS011;40860;51.710;8.736;2023-03-01T20:45:45;12.00;;;7.95;;
54959;SDS011;40860;51.710;8.736;2023-03-01T20:49:49;12.57;;;8.52;;
54959;SDS011;40860;51.710;8.736;2023-03-01T20:53:54;13.38;;;8.52;;
54959;SDS011;40860;51.710;8.736;2023-03-01T20:57:57;12.85;;;8.13;;
54959;SDS011;40860;51.710;8.736;2023-03-01T21:02:00;12.02;;;7.97;;
54959;SDS011;40860;51.710;8.736;2023-03-01T21:06:03;12.30;;;7.15;;
54959;SDS011;40860;51.710;8.736;2023-03-01T21:10:10;10.55;;;7.22;;
54959;SDS011;40860;51.710;8.736;2023-03-01T21:14:13;13.55;;;8.07;;
54959;SDS011;40860;51.710;8.736;2023-03-01T21:18:15;14.68;;;8.55;;
54959;SDS011;40860;51.710;8.736;2023-03-01T21:22:18;12.50;;;8.25;;
54959;SDS011;40860;51.710;8.736;2023-03-01T21:26:23;12.73;;;7.25;;
54959;SDS011;40860;51.710;8.736;2023-03-01T21:30:27;14.43;;;7.35;;
54959;SDS011;40860;51.710;8.736;2023-03-01T21:34:31;11.57;;;7.07;;
54959;SDS011;40860;51.710;8.736;2023-03-01T21:38:34;14.95;;;6.88;;
54959;SDS011;40860;51.710;8.736;2023-03-01T21:42:40;10.77;;;7.05;;
54959;SDS011;40860;51.710;8.736;2023-03-01T21:46:44;12.52;;;6.95;;
54959;SDS011;40860;51.710;8.736;2023-03-01T21:50:53;11.30;;;7.10;;
54959;SDS011;40860;51.710;8.736;2023-03-01T21:54:57;11.57;;;6.88;;
54959;SDS011;40860;51.710;8.736;2023-03-01T21:59:03;11.75;;;7.63;;
54959;SDS011;40860;51.710;8.736;2023-03-01T22:03:08;11.35;;;7.25;;
54959;SDS011;40860;51.710;8.736;2023-03-01T22:07:12;11.40;;;7.40;;
54959;SDS011;40860;51.710;8.736;2023-03-01T22:11:15;11.60;;;7.65;;
54959;SDS011;40860;51.710;8.736;2023-03-01T22:15:21;11.38;;;7.35;;
54959;SDS011;40860;51.710;8.736;2023-03-01T22:19:28;12.00;;;7.13;;
54959;SDS011;40860;51.710;8.736;2023-03-01T22:23:35;12.43;;;7.78;;
54959;SDS011;40860;51.710;8.736;2023-03-01T22:27:40;10.98;;;7.55;;
54959;SDS011;40860;51.710;8.736;2023-03-01T22:31:56;13.40;;;7.50;;
54959;SDS011;40860;51.710;8.736;2023-03-01T22:36:02;11.63;;;7.65;;
54959;SDS011;40860;51.710;8.736;2023-03-01T22:40:13;11.95;;;8.02;;
54959;SDS011;40860;51.710;8.736;2023-03-01T22:44:18;11.73;;;7.50;;
54959;SDS011;40860;51.710;8.736;2023-03-01T22:48:25;14.80;;;7.63;;
54959;SDS011;40860;51.710;8.736;2023-03-01T22:52:34;12.93;;;7.82;;
54959;SDS011;40860;51.710;8.736;2023-03-01T22:56:40;12.60;;;7.15;;
54959;SDS011;40860;51.710;8.736;2023-03-01T23:00:44;11.95;;;7.20;;
54959;SDS011;40860;51.710;8.736;2023-03-01T23:04:53;11.25;;;7.35;;
54959;SDS011;40860;51.710;8.736;2023-03-01T23:08:57;9.38;;;7.03;;
54959;SDS011;40860;51.710;8.736;2023-03-01T23:13:01;11.65;;;7.30;;
54959;SDS011;40860;51.710;8.736;2023-03-01T23:17:04;9.60;;;6.80;;
54959;SDS011;40860;51.710;8.736;2023-03-01T23:21:10;11.68;;;7.18;;
54959;SDS011;40860;51.710;8.736;2023-03-01T23:25:14;9.40;;;6.70;;
54959;SDS011;40860;51.710;8.736;2023-03-01T23:29:18;15.00;;;7.68;;
54959;SDS011;40860;51.710;8.736;2023-03-01T23:33:21;10.55;;;6.03;;
54959;SDS011;40860;51.710;8.736;2023-03-01T23:37:29;9.70;;;6.22;;
54959;SDS011;40860;51.710;8.736;2023-03-01T23:41:32;7.97;;;5.68;;
54959;SDS011;40860;51.710;8.736;2023-03-01T23:45:36;8.07;;;5.40;;
54959;SDS011;40860;51.710;8.736;2023-03-01T23:49:42;8.20;;;5.10;;
54959;SDS011;40860;51.710;8.736;2023-03-01T23:53:48;7.43;;;5.05;;
